Time;durP1;ratioP1;P1;durP2;ratioP2;P2;SDS_P1;SDS_P2;PMS_P1;PMS_P2;Temp;Humidity;BMP_temperature;BMP_pressure;BME280_temperature;BME280_humidity;BME280_pressure;Samples;Min_cycle;Max_cycle;Signal;HPM_P1;HPM_P2
2023/07/15 00:00:26;;;;;;;4.50;4.20;;;;;;;22.72;49.35;97414.84;4988407;28;20505;-76
2023/07/15 00:02:54;;;;;;;4.77;4.37;;;;;;;22.71;49.18;97418.72;4988758;28;20493;-76
2023/07/15 00:05:25;;;;;;;4.60;4.20;;;;;;;22.72;49.57;97420.38;4989199;28;20814;-75
2023/07/15 00:07:53;;;;;;;4.90;4.50;;;;;;;22.53;49.93;97409.28;4985229;28;20454;-75
2023/07/15 00:10:21;;;;;;;5.40;4.67;;;;;;;22.39;50.12;97411.13;4988540;28;20474;-76
2023/07/15 00:12:49;;;;;;;6.33;4.37;;;;;;;22.24;50.86;97414.03;4988189;28;20468;-76
2023/07/15 00:15:17;;;;;;;4.70;4.30;;;;;;;22.27;50.35;97413.44;4986717;28;20466;-76
2023/07/15 00:17:44;;;;;;;4.27;3.97;;;;;;;22.33;49.92;97410.34;4989311;28;20537;-76
2023/07/15 00:20:14;;;;;;;4.37;3.97;;;;;;;22.32;50.07;97413.41;4987870;28;21043;-76
2023/07/15 00:22:44;;;;;;;4.10;3.70;;;;;;;22.44;49.85;97411.03;4988592;28;20564;-75
2023/07/15 00:25:15;;;;;;;4.10;3.70;;;;;;;22.31;50.47;97411.75;4985856;28;20907;-75
2023/07/15 00:27:42;;;;;;;5.20;4.73;;;;;;;22.17;51.02;97413.56;4997664;28;20473;-75
2023/07/15 00:30:11;;;;;;;4.53;4.13;;;;;;;22.07;50.96;97409.81;4991180;28;20504;-75
2023/07/15 00:32:40;;;;;;;4.03;3.73;;;;;;;22.05;51.26;97405.72;4990158;28;20814;-75
2023/07/15 00:35:19;;;;;;;3.90;3.60;;;;;;;21.95;51.53;97411.28;4987227;28;20465;-76
2023/07/15 00:37:48;;;;;;;4.17;3.77;;;;;;;22.13;50.78;97408.63;4989555;28;20457;-76
2023/07/15 00:40:16;;;;;;;4.00;3.63;;;;;;;22.17;50.81;97408.03;4985812;28;21086;-76
2023/07/15 00:42:50;;;;;;;4.10;3.80;;;;;;;22.22;50.79;97411.56;4985507;28;20492;-76
2023/07/15 00:45:17;;;;;;;3.67;3.37;;;;;;;22.17;50.44;97411.63;4985918;28;20484;-76
2023/07/15 00:47:50;;;;;;;3.70;3.50;;;;;;;22.20;50.57;97412.97;4988865;28;20799;-75
2023/07/15 00:50:18;;;;;;;4.27;3.90;;;;;;;22.28;50.52;97404.06;4986577;28;20481;-76
2023/07/15 00:52:45;;;;;;;3.87;3.57;;;;;;;22.36;50.22;97418.03;4987932;28;20457;-76
2023/07/15 00:55:14;;;;;;;5.80;3.90;;;;;;;22.23;50.43;97417.91;4989242;28;20535;-76
2023/07/15 00:57:42;;;;;;;3.60;3.30;;;;;;;22.16;50.80;97417.44;4987515;28;20473;-76
2023/07/15 01:00:12;;;;;;;4.17;3.77;;;;;;;22.30;50.67;97418.38;4984409;28;20573;-77
2023/07/15 01:02:39;;;;;;;3.67;3.47;;;;;;;22.25;50.88;97415.69;4988918;28;20485;-75
2023/07/15 01:05:10;;;;;;;3.37;3.17;;;;;;;22.23;50.94;97420.66;4991052;28;20462;-76
2023/07/15 01:07:37;;;;;;;4.70;4.30;;;;;;;22.13;51.37;97422.41;4988873;28;20823;-76
2023/07/15 01:10:05;;;;;;;3.90;3.60;;;;;;;22.07;51.61;97420.03;4988846;28;20474;-76
2023/07/15 01:12:34;;;;;;;4.80;3.70;;;;;;;22.03;51.65;97425.28;4999322;28;20522;-76
2023/07/15 01:15:02;;;;;;;3.80;3.50;;;;;;;22.04;52.15;97421.41;5008919;28;20511;-76
2023/07/15 01:17:28;;;;;;;4.10;3.73;;;;;;;22.09;52.20;97417.78;4994325;28;20461;-76
2023/07/15 01:19:55;;;;;;;5.30;4.10;;;;;;;22.02;52.40;97418.13;4992141;28;21167;-75
2023/07/15 01:22:25;;;;;;;4.07;3.77;;;;;;;22.12;52.10;97422.69;4994459;28;20485;-76
2023/07/15 01:24:55;;;;;;;4.93;4.43;;;;;;;22.26;51.71;97412.63;4990581;28;20462;-76
2023/07/15 01:27:26;;;;;;;4.30;3.83;;;;;;;22.30;51.61;97418.38;4993951;28;20466;-76
2023/07/15 01:29:53;;;;;;;4.13;3.83;;;;;;;22.25;51.47;97424.78;4990906;28;20821;-76
2023/07/15 01:32:21;;;;;;;3.90;3.60;;;;;;;22.06;52.07;97424.72;4988143;28;20453;-76
2023/07/15 01:34:48;;;;;;;5.00;3.70;;;;;;;22.18;51.93;97415.19;4993718;28;21025;-76
2023/07/15 01:37:15;;;;;;;4.93;3.90;;;;;;;22.18;51.84;97416.03;4991896;28;20552;-76
2023/07/15 01:39:47;;;;;;;3.87;3.57;;;;;;;22.19;51.84;97417.66;4992680;28;20842;-76
2023/07/15 01:42:16;;;;;;;4.37;3.97;;;;;;;22.25;51.87;97412.91;4989538;28;20500;-75
2023/07/15 01:44:43;;;;;;;4.00;3.80;;;;;;;22.10;52.25;97411.97;4993751;28;20457;-76
2023/07/15 01:47:11;;;;;;;3.90;3.50;;;;;;;22.20;52.26;97413.78;4991906;28;20578;-76
2023/07/15 01:49:42;;;;;;;4.03;3.73;;;;;;;22.05;52.35;97412.03;4989653;28;21042;-75
2023/07/15 01:52:09;;;;;;;4.40;3.93;;;;;;;21.88;52.98;97422.63;4992407;28;20454;-76
2023/07/15 01:54:37;;;;;;;4.47;4.07;;;;;;;21.75;53.92;97413.13;4991937;28;20492;-76
2023/07/15 01:57:05;;;;;;;3.87;3.53;;;;;;;21.74;53.77;97411.47;4990618;28;20522;-76
2023/07/15 01:59:33;;;;;;;4.50;4.10;;;;;;;21.66;54.00;97403.03;4986365;28;20480;-76
2023/07/15 02:02:01;;;;;;;4.00;3.60;;;;;;;21.60;54.17;97405.00;4991854;28;20497;-76
2023/07/15 02:04:29;;;;;;;4.30;3.90;;;;;;;21.69;54.17;97405.19;4992633;28;20480;-74
2023/07/15 02:06:56;;;;;;;4.80;4.37;;;;;;;21.78;53.59;97407.00;4990179;28;20461;-75
2023/07/15 02:09:23;;;;;;;4.47;4.07;;;;;;;21.91;53.21;97405.53;4989365;28;20476;-74
2023/07/15 02:11:50;;;;;;;5.90;4.37;;;;;;;21.82;53.41;97396.25;4992626;28;20939;-74
2023/07/15 02:14:18;;;;;;;4.30;4.00;;;;;;;21.77;53.90;97399.03;4990275;28;20460;-76
2023/07/15 02:16:47;;;;;;;5.90;4.50;;;;;;;21.61;54.32;97392.88;4989731;28;20653;-76
2023/07/15 02:19:13;;;;;;;4.27;3.97;;;;;;;21.59;54.41;97384.06;4990863;28;20486;-74
2023/07/15 02:21:40;;;;;;;4.93;4.53;;;;;;;21.58;54.64;97390.69;4991353;28;21158;-75
2023/07/15 02:24:09;;;;;;;4.00;3.70;;;;;;;21.56;54.34;97392.09;4986337;28;20882;-75
2023/07/15 02:26:36;;;;;;;4.13;3.80;;;;;;;21.36;54.98;97391.16;4986796;28;20472;-75
2023/07/15 02:29:03;;;;;;;4.67;4.23;;;;;;;21.23;55.73;97383.53;4989785;28;20567;-76
2023/07/15 02:31:30;;;;;;;4.80;4.40;;;;;;;21.34;55.38;97382.34;4988075;28;20461;-75
2023/07/15 02:33:58;;;;;;;4.57;4.13;;;;;;;21.41;55.21;97385.59;4987897;28;21158;-76
2023/07/15 02:36:25;;;;;;;5.13;4.47;;;;;;;21.23;55.37;97383.53;4990676;28;20884;-75
2023/07/15 02:38:52;;;;;;;4.43;4.03;;;;;;;21.26;55.35;97377.47;4988534;28;20957;-74
2023/07/15 02:41:18;;;;;;;4.27;3.97;;;;;;;21.26;55.67;97376.63;4986291;28;20470;-75
2023/07/15 02:43:45;;;;;;;4.03;3.73;;;;;;;21.15;55.87;97381.34;4991228;28;20521;-74
2023/07/15 02:46:12;;;;;;;3.90;3.60;;;;;;;21.11;55.90;97392.13;4991393;28;20457;-74
2023/07/15 02:48:39;;;;;;;4.50;4.10;;;;;;;20.94;56.67;97386.19;4988752;28;20485;-68
2023/07/15 02:51:07;;;;;;;4.60;4.20;;;;;;;20.82;57.22;97382.94;4990140;28;20489;-68
2023/07/15 02:53:33;;;;;;;4.23;3.93;;;;;;;20.70;57.69;97382.50;4990295;28;20490;-69
2023/07/15 02:56:00;;;;;;;4.17;3.77;;;;;;;20.66;57.68;97390.47;4990416;28;20811;-68
2023/07/15 02:58:26;;;;;;;4.00;3.70;;;;;;;20.68;57.77;97382.75;4987172;28;20535;-68
2023/07/15 03:00:52;;;;;;;4.27;3.93;;;;;;;20.58;58.19;97393.81;4989918;28;20462;-69
2023/07/15 03:03:21;;;;;;;3.77;3.47;;;;;;;20.47;58.58;97392.19;4989205;28;20269;-68
2023/07/15 03:05:47;;;;;;;4.33;3.93;;;;;;;20.33;58.78;97380.97;4990537;28;20461;-68
2023/07/15 03:08:15;;;;;;;4.20;3.90;;;;;;;20.43;58.61;97391.97;4989101;28;21468;-68
2023/07/15 03:10:43;;;;;;;4.00;3.70;;;;;;;20.50;58.15;97386.13;4987527;28;20818;-69
2023/07/15 03:13:09;;;;;;;4.00;3.70;;;;;;;20.51;58.54;97387.78;4989177;28;20450;-68
2023/07/15 03:15:36;;;;;;;5.03;4.13;;;;;;;20.34;58.81;97385.38;4988929;28;20880;-69
2023/07/15 03:18:03;;;;;;;4.03;3.73;;;;;;;20.23;59.23;97392.00;4989013;28;20537;-68
2023/07/15 03:20:30;;;;;;;4.33;3.87;;;;;;;20.11;59.63;97386.84;4989552;28;20534;-69
2023/07/15 03:22:57;;;;;;;3.67;3.43;;;;;;;20.13;59.91;97384.63;4989423;28;20494;-68
2023/07/15 03:25:25;;;;;;;4.53;4.13;;;;;;;19.96;60.30;97392.34;4990776;28;20484;-68
2023/07/15 03:27:52;;;;;;;4.30;3.63;;;;;;;19.99;60.27;97394.53;4989290;28;20480;-68
2023/07/15 03:30:19;;;;;;;4.03;3.50;;;;;;;19.84;60.82;97393.75;4990799;28;20540;-69
2023/07/15 03:32:47;;;;;;;6.23;4.50;;;;;;;19.71;61.10;97386.91;4985885;28;20458;-68
2023/07/15 03:35:13;;;;;;;4.13;3.70;;;;;;;19.80;61.18;97382.50;4988679;28;20525;-68
2023/07/15 03:37:43;;;;;;;3.90;3.60;;;;;;;19.72;61.23;97389.38;4989472;28;20454;-69
2023/07/15 03:40:12;;;;;;;3.90;3.60;;;;;;;19.70;61.32;97388.00;4986968;28;20454;-68
2023/07/15 03:42:40;;;;;;;4.83;3.40;;;;;;;19.71;61.50;97386.91;4989893;28;20501;-68
2023/07/15 03:45:08;;;;;;;3.97;3.67;;;;;;;19.72;61.47;97392.13;4989360;28;20517;-68
2023/07/15 03:47:35;;;;;;;3.87;3.57;;;;;;;19.68;61.49;97387.47;4989159;28;20914;-68
2023/07/15 03:50:02;;;;;;;4.00;3.70;;;;;;;19.40;62.48;97392.41;4989635;28;20521;-68
2023/07/15 03:52:29;;;;;;;4.33;4.00;;;;;;;19.51;62.35;97395.97;4990303;28;20465;-69
2023/07/15 03:54:56;;;;;;;4.70;4.30;;;;;;;19.60;61.86;97391.59;4990708;28;20552;-68
2023/07/15 03:57:23;;;;;;;4.40;3.97;;;;;;;19.42;62.71;97387.47;4991803;28;20460;-67
2023/07/15 03:59:51;;;;;;;4.50;4.10;;;;;;;19.42;62.53;97387.47;4996968;28;20524;-68
2023/07/15 04:02:18;;;;;;;4.47;3.87;;;;;;;19.45;62.60;97386.09;4992175;28;20528;-68
2023/07/15 04:04:46;;;;;;;4.97;4.10;;;;;;;19.45;62.88;97377.84;4990034;28;20529;-68
2023/07/15 04:07:13;;;;;;;4.30;3.93;;;;;;;19.42;62.86;97376.47;4989313;28;20454;-69
2023/07/15 04:09:40;;;;;;;4.87;4.47;;;;;;;19.54;62.56;97378.94;4989212;28;20574;-68
2023/07/15 04:12:08;;;;;;;4.10;3.80;;;;;;;19.50;62.92;97382.50;4988539;28;20462;-69
2023/07/15 04:14:35;;;;;;;4.30;3.93;;;;;;;19.46;62.81;97379.50;4985639;28;20462;-68
2023/07/15 04:17:04;;;;;;;5.03;4.20;;;;;;;19.45;63.22;97381.41;4985185;28;20558;-72
2023/07/15 04:19:31;;;;;;;4.50;4.20;;;;;;;19.45;63.17;97381.41;4981448;28;21013;-68
2023/07/15 04:21:57;;;;;;;4.93;4.20;;;;;;;19.55;62.95;97379.78;4984673;28;20528;-68
2023/07/15 04:24:24;;;;;;;4.20;3.90;;;;;;;19.62;62.81;97374.84;4988143;28;20525;-68
2023/07/15 04:26:51;;;;;;;4.47;4.07;;;;;;;19.65;62.54;97375.09;4984472;28;20495;-68
2023/07/15 04:29:19;;;;;;;3.70;3.50;;;;;;;19.76;62.10;97373.19;4988697;28;20475;-68
2023/07/15 04:31:47;;;;;;;4.97;4.10;;;;;;;19.79;61.80;97365.22;4988383;28;20473;-68
2023/07/15 04:34:15;;;;;;;4.83;4.10;;;;;;;19.84;61.97;97367.09;4983735;28;20459;-68
2023/07/15 04:36:42;;;;;;;4.37;4.07;;;;;;;19.65;62.53;97371.53;4990165;28;20540;-68
2023/07/15 04:39:09;;;;;;;4.20;3.90;;;;;;;19.63;62.84;97371.81;4987684;28;20540;-69
2023/07/15 04:41:36;;;;;;;4.20;3.90;;;;;;;19.69;62.73;97367.16;4989493;28;20480;-68
2023/07/15 04:44:03;;;;;;;4.10;3.80;;;;;;;19.91;61.89;97364.88;4983053;28;20582;-68
2023/07/15 04:46:30;;;;;;;4.30;4.00;;;;;;;19.98;61.72;97368.19;4988484;28;20557;-69
2023/07/15 04:48:56;;;;;;;4.80;3.93;;;;;;;20.22;60.87;97373.03;4988172;28;20504;-68
2023/07/15 04:51:25;;;;;;;4.40;4.00;;;;;;;20.33;60.62;97377.41;4989672;28;20860;-68
2023/07/15 04:53:52;;;;;;;4.57;4.17;;;;;;;20.41;60.59;97374.09;4980581;28;20459;-69
2023/07/15 04:56:19;;;;;;;4.10;3.80;;;;;;;20.34;60.68;97368.06;4987351;28;20874;-68
2023/07/15 04:58:45;;;;;;;4.63;4.23;;;;;;;20.44;60.58;97376.28;4988450;28;20470;-68
2023/07/15 05:01:13;;;;;;;6.53;4.00;;;;;;;20.57;60.46;97369.34;4988092;28;20540;-68
2023/07/15 05:03:40;;;;;;;3.93;3.73;;;;;;;20.77;60.11;97370.06;4986821;28;20491;-68
2023/07/15 05:06:08;;;;;;;4.13;3.80;;;;;;;20.78;60.47;97371.72;4987532;28;20462;-69
2023/07/15 05:08:37;;;;;;;4.70;3.30;;;;;;;20.88;59.67;97381.00;4987555;28;20499;-68
2023/07/15 05:11:04;;;;;;;4.20;3.90;;;;;;;20.93;60.11;97378.22;4982147;28;20514;-68
2023/07/15 05:13:31;;;;;;;4.10;3.80;;;;;;;21.13;60.08;97373.38;4984078;28;21088;-69
2023/07/15 05:15:58;;;;;;;4.03;3.57;;;;;;;21.17;59.37;97384.66;4985749;28;20655;-69
2023/07/15 05:18:24;;;;;;;4.13;3.80;;;;;;;21.35;59.39;97380.44;4988266;28;20493;-67
2023/07/15 05:20:51;;;;;;;4.13;3.70;;;;;;;21.54;59.11;97380.53;4962110;28;20470;-69
2023/07/15 05:23:18;;;;;;;3.87;3.57;;;;;;;21.59;58.39;97374.97;4971997;28;20503;-68
2023/07/15 05:25:46;;;;;;;4.00;3.70;;;;;;;21.71;58.06;97380.94;4975782;28;20567;-69
2023/07/15 05:28:13;;;;;;;3.93;3.53;;;;;;;21.77;57.93;97388.03;4968187;28;20561;-68
2023/07/15 05:30:40;;;;;;;5.40;3.67;;;;;;;21.79;57.92;97381.09;4979331;28;20464;-69
2023/07/15 05:33:06;;;;;;;4.10;3.53;;;;;;;21.81;57.65;97375.31;4975864;28;20454;-69
2023/07/15 05:35:33;;;;;;;4.80;3.40;;;;;;;22.00;56.62;97376.22;4972981;28;20473;-69
2023/07/15 05:38:01;;;;;;;3.77;3.40;;;;;;;22.08;55.95;97383.91;4982148;28;21093;-69
2023/07/15 05:40:28;;;;;;;5.53;3.90;;;;;;;22.33;56.26;97379.19;5005670;28;20472;-69
2023/07/15 05:42:55;;;;;;;4.30;4.00;;;;;;;22.39;55.51;97383.53;5024164;28;20483;-70
2023/07/15 05:45:22;;;;;;;4.10;3.23;;;;;;;22.35;55.94;97388.00;5017327;28;20482;-68
2023/07/15 05:47:49;;;;;;;3.50;3.27;;;;;;;22.39;54.73;97389.06;5010230;28;20484;-69
2023/07/15 05:50:16;;;;;;;3.77;3.47;;;;;;;22.65;54.98;97387.63;5012582;28;20552;-68
2023/07/15 05:52:43;;;;;;;3.83;3.40;;;;;;;22.83;54.56;97386.00;5011457;28;20509;-68
2023/07/15 05:55:10;;;;;;;5.10;3.60;;;;;;;22.79;54.50;97387.72;5018308;28;20547;-68
2023/07/15 05:57:36;;;;;;;3.33;3.03;;;;;;;23.03;52.90;97385.75;5016387;28;20611;-68
2023/07/15 06:00:08;;;;;;;4.10;3.70;;;;;;;23.33;52.28;97392.72;5001095;28;20487;-70
2023/07/15 06:02:34;;;;;;;3.60;3.30;;;;;;;23.24;52.62;97383.47;5024066;28;20452;-69
2023/07/15 06:05:01;;;;;;;3.53;3.20;;;;;;;23.30;52.55;97384.22;5022964;28;21000;-70
2023/07/15 06:07:28;;;;;;;3.17;2.97;;;;;;;23.42;51.59;97379.84;5023609;28;20507;-71
2023/07/15 06:09:55;;;;;;;3.70;3.20;;;;;;;23.50;50.85;97381.13;5021903;28;20559;-69
2023/07/15 06:12:22;;;;;;;3.23;3.00;;;;;;;23.46;50.97;97374.56;5029898;28;20487;-69
2023/07/15 06:14:49;;;;;;;5.23;3.20;;;;;;;23.84;50.66;97369.78;5027949;28;20982;-69
2023/07/15 06:17:17;;;;;;;3.30;3.10;;;;;;;23.72;49.69;97366.69;5030184;28;20502;-69
2023/07/15 06:19:44;;;;;;;4.40;3.07;;;;;;;23.71;50.08;97365.06;5025389;28;20484;-69
2023/07/15 06:22:11;;;;;;;3.80;3.50;;;;;;;23.79;49.90;97362.41;5027775;28;20483;-69
2023/07/15 06:24:38;;;;;;;3.37;3.17;;;;;;;23.92;50.07;97359.97;5029560;28;20487;-69
2023/07/15 06:27:05;;;;;;;3.50;3.20;;;;;;;24.08;49.13;97353.81;5027359;28;20487;-69
2023/07/15 06:29:32;;;;;;;3.43;3.13;;;;;;;24.31;48.95;97342.94;5029511;28;20460;-69
2023/07/15 06:31:59;;;;;;;3.10;2.90;;;;;;;24.58;48.49;97331.00;5029442;28;20546;-69
2023/07/15 06:34:28;;;;;;;4.67;3.40;;;;;;;24.57;48.02;97324.66;5025548;28;20464;-69
2023/07/15 06:36:55;;;;;;;3.40;3.10;;;;;;;24.55;47.67;97318.59;5029865;28;20458;-69
2023/07/15 06:39:22;;;;;;;3.10;2.90;;;;;;;24.50;46.89;97335.31;5030167;28;20455;-76
2023/07/15 06:41:49;;;;;;;3.10;2.90;;;;;;;24.78;46.37;97345.19;5025039;28;20452;-77
2023/07/15 06:44:15;;;;;;;3.47;3.17;;;;;;;25.01;46.28;97345.28;5024252;28;20497;-78
2023/07/15 06:46:42;;;;;;;3.50;2.83;;;;;;;25.19;44.37;97347.06;5023542;28;20544;-76
2023/07/15 06:49:09;;;;;;;3.57;2.80;;;;;;;25.25;44.58;97337.50;5034635;28;20479;-76
2023/07/15 06:51:37;;;;;;;3.20;3.00;;;;;;;25.48;45.24;97334.72;5024255;28;20502;-76
2023/07/15 06:54:04;;;;;;;5.33;2.50;;;;;;;25.60;44.04;97335.78;5026988;28;20589;-74
2023/07/15 06:56:31;;;;;;;3.53;3.23;;;;;;;25.73;43.37;97342.41;5025289;28;20449;-75
2023/07/15 06:58:58;;;;;;;3.37;3.07;;;;;;;26.00;43.37;97333.91;5028849;28;21042;-76
2023/07/15 07:01:24;;;;;;;3.13;2.90;;;;;;;26.20;42.75;97334.47;5021155;28;20858;-76
2023/07/15 07:03:52;;;;;;;3.10;2.90;;;;;;;26.50;40.98;97328.06;5023733;28;20701;-76
2023/07/15 07:06:20;;;;;;;3.13;2.83;;;;;;;26.57;41.60;97325.66;5021553;28;20541;-75
2023/07/15 07:08:48;;;;;;;3.03;2.73;;;;;;;26.62;41.36;97325.50;5031058;28;20470;-75
2023/07/15 07:11:15;;;;;;;2.93;2.73;;;;;;;26.75;41.12;97327.31;5029388;28;20467;-76
2023/07/15 07:13:42;;;;;;;3.33;2.63;;;;;;;26.85;40.91;97326.19;5023442;28;20912;-78
2023/07/15 07:16:09;;;;;;;3.00;2.80;;;;;;;27.15;41.58;97327.19;5029761;28;20549;-76
2023/07/15 07:18:35;;;;;;;4.63;2.53;;;;;;;27.26;40.13;97325.75;5028865;28;20559;-78
2023/07/15 07:21:03;;;;;;;3.13;2.93;;;;;;;27.39;39.91;97326.69;5029133;28;20550;-71
2023/07/15 07:23:30;;;;;;;4.07;3.20;;;;;;;27.59;39.34;97326.06;5024005;28;20995;-71
2023/07/15 07:25:58;;;;;;;3.27;2.90;;;;;;;27.65;39.66;97326.66;5029874;28;20519;-70
2023/07/15 07:28:38;;;;;;;4.00;3.10;;;;;;;27.84;39.21;97326.31;5024274;28;20578;-78
2023/07/15 07:31:05;;;;;;;2.90;2.70;;;;;;;27.88;38.20;97333.66;5027592;28;20448;-75
2023/07/15 07:33:32;;;;;;;3.20;2.90;;;;;;;28.07;38.77;97320.16;5027545;28;20464;-72
2023/07/15 07:35:59;;;;;;;2.90;2.70;;;;;;;28.35;38.84;97336.44;5019644;28;20460;-72
2023/07/15 07:38:26;;;;;;;4.20;3.00;;;;;;;28.54;38.21;97336.84;5026621;28;20479;-71
2023/07/15 07:40:53;;;;;;;3.60;3.20;;;;;;;28.85;37.73;97330.97;5022919;28;21038;-71
2023/07/15 07:43:21;;;;;;;3.10;2.80;;;;;;;29.17;36.32;97334.16;5025226;28;20463;-71
2023/07/15 07:45:47;;;;;;;3.33;3.00;;;;;;;29.07;33.91;97327.00;5020425;28;20980;-71
2023/07/15 07:48:14;;;;;;;3.83;2.83;;;;;;;29.27;34.50;97328.97;5019518;28;20538;-71
2023/07/15 07:50:42;;;;;;;4.17;2.53;;;;;;;29.38;34.70;97324.63;5022079;28;20467;-71
2023/07/15 07:53:09;;;;;;;3.90;3.10;;;;;;;29.85;34.64;97331.91;5011010;28;20464;-73
2023/07/15 07:55:36;;;;;;;3.27;3.00;;;;;;;30.17;34.85;97327.44;5021895;28;20587;-73
2023/07/15 07:58:03;;;;;;;3.07;2.87;;;;;;;29.96;32.53;97322.72;5026634;28;20538;-72
2023/07/15 08:00:31;;;;;;;3.20;2.90;;;;;;;30.02;32.43;97321.38;5022939;28;20456;-72
2023/07/15 08:02:58;;;;;;;2.60;2.40;;;;;;;30.19;32.99;97325.13;5016150;28;20452;-71
2023/07/15 08:05:25;;;;;;;3.20;3.00;;;;;;;30.40;32.70;97321.06;5016800;28;20494;-72
2023/07/15 08:07:51;;;;;;;3.53;2.37;;;;;;;30.76;31.65;97327.81;5012802;28;20476;-72
2023/07/15 08:10:18;;;;;;;3.10;2.90;;;;;;;31.00;32.83;97326.97;5015763;28;20468;-77
2023/07/15 08:12:45;;;;;;;3.20;3.00;;;;;;;31.05;33.19;97324.75;5016224;28;20920;-77
2023/07/15 08:15:12;;;;;;;2.83;2.63;;;;;;;31.14;30.57;97327.44;5016588;28;20460;-78
2023/07/15 08:17:41;;;;;;;3.30;3.00;;;;;;;31.05;30.34;97329.50;5016229;28;20531;-70
2023/07/15 08:20:09;;;;;;;2.93;2.57;;;;;;;31.56;30.19;97327.03;5016346;28;20481;-71
2023/07/15 08:22:35;;;;;;;4.03;3.10;;;;;;;31.43;29.36;97328.25;5017975;28;20532;-72
2023/07/15 08:25:03;;;;;;;2.50;2.30;;;;;;;31.30;29.92;97319.91;5009751;28;20484;-72
2023/07/15 08:27:30;;;;;;;2.70;2.50;;;;;;;31.46;29.38;97314.38;4975524;28;20475;-72
2023/07/15 08:29:56;;;;;;;3.20;2.90;;;;;;;31.34;29.22;97325.59;5020384;28;20539;-75
2023/07/15 08:32:23;;;;;;;2.60;2.40;;;;;;;31.01;29.30;97331.38;5023577;28;20538;-71
2023/07/15 08:35:01;;;;;;;2.53;2.27;;;;;;;30.98;29.42;97338.50;5022987;28;20453;-71
2023/07/15 08:37:29;;;;;;;6.63;2.80;;;;;;;30.92;29.45;97330.69;5001022;28;20483;-69
2023/07/15 08:39:55;;;;;;;2.77;2.57;;;;;;;31.09;29.97;97330.44;4999346;28;21108;-71
2023/07/15 08:42:24;;;;;;;2.67;2.53;;;;;;;30.90;30.02;97336.63;5017007;28;20511;-70
2023/07/15 08:44:52;;;;;;;2.90;2.70;;;;;;;31.08;29.89;97340.00;5007654;28;22266;-71
2023/07/15 08:47:20;;;;;;;2.83;2.63;;;;;;;31.19;30.02;97329.94;5018666;28;20487;-71
2023/07/15 08:49:48;;;;;;;4.43;2.53;;;;;;;31.40;29.51;97335.38;5025081;28;20507;-71
2023/07/15 08:52:20;;;;;;;3.23;2.93;;;;;;;31.45;28.97;97334.31;5026766;28;20448;-72
2023/07/15 08:54:48;;;;;;;3.00;2.80;;;;;;;31.46;29.70;97341.53;5023376;28;21017;-72
2023/07/15 08:57:17;;;;;;;2.87;2.40;;;;;;;31.47;29.29;97334.78;5024901;28;20488;-73
2023/07/15 08:59:44;;;;;;;3.17;2.97;;;;;;;31.79;28.43;97342.13;5013519;28;21555;-71
2023/07/15 09:02:11;;;;;;;2.80;2.60;;;;;;;31.66;28.28;97332.94;5013931;28;20447;-72
2023/07/15 09:04:39;;;;;;;2.70;2.50;;;;;;;31.70;28.78;97330.25;5020542;28;20562;-72
2023/07/15 09:07:06;;;;;;;3.27;2.57;;;;;;;32.20;28.47;97334.38;5016768;28;20476;-72
2023/07/15 09:09:35;;;;;;;2.67;2.43;;;;;;;32.58;28.25;97331.78;5021092;28;20887;-72
2023/07/15 09:12:04;;;;;;;2.70;2.50;;;;;;;32.57;28.08;97332.97;5022053;28;20828;-72
2023/07/15 09:14:31;;;;;;;2.60;2.50;;;;;;;32.46;27.33;97320.69;5024210;28;20538;-72
2023/07/15 09:16:59;;;;;;;2.43;2.30;;;;;;;32.52;27.59;97319.22;5012935;28;20476;-73
2023/07/15 09:19:28;;;;;;;3.00;2.80;;;;;;;32.46;27.16;97326.31;5019501;28;20843;-71
2023/07/15 09:22:05;;;;;;;2.80;2.60;;;;;;;32.61;26.60;97322.66;5021223;28;20464;-72
2023/07/15 09:24:34;;;;;;;2.57;2.40;;;;;;;32.66;26.23;97316.78;5020011;28;20481;-71
2023/07/15 09:27:01;;;;;;;3.50;2.60;;;;;;;32.97;26.55;97317.91;5026360;28;20476;-72
2023/07/15 09:29:27;;;;;;;2.77;2.57;;;;;;;33.18;26.33;97317.56;5028861;28;21022;-72
2023/07/15 09:31:54;;;;;;;3.20;2.73;;;;;;;33.03;25.33;97322.06;5021866;28;20539;-71
2023/07/15 09:34:21;;;;;;;3.50;2.40;;;;;;;32.98;27.07;97313.91;5030021;28;20456;-72
2023/07/15 09:36:48;;;;;;;2.50;2.40;;;;;;;33.25;26.46;97324.13;5028460;28;20546;-73
2023/07/15 09:39:17;;;;;;;2.90;2.70;;;;;;;32.83;26.43;97317.56;5025411;28;20452;-73
2023/07/15 09:41:59;;;;;;;2.53;2.40;;;;;;;33.23;26.25;97325.69;5015365;28;20827;-72
2023/07/15 09:44:34;;;;;;;2.80;2.60;;;;;;;34.06;24.91;97317.78;5027485;28;20498;-72
2023/07/15 09:47:01;;;;;;;2.97;2.77;;;;;;;34.22;24.15;97324.06;5029403;28;20489;-72
2023/07/15 09:49:28;;;;;;;2.83;2.63;;;;;;;34.28;24.42;97319.75;5030701;28;20456;-72
2023/07/15 09:51:54;;;;;;;3.10;2.50;;;;;;;34.25;24.59;97312.91;5027454;28;20460;-73
2023/07/15 09:54:22;;;;;;;3.00;2.80;;;;;;;34.53;24.50;97321.03;5019087;28;20476;-72
2023/07/15 09:56:51;;;;;;;3.00;2.80;;;;;;;34.83;24.12;97320.31;5029266;28;20476;-73
2023/07/15 09:59:20;;;;;;;2.70;2.50;;;;;;;35.24;22.92;97319.28;5028967;28;20452;-73
2023/07/15 10:01:49;;;;;;;3.13;2.83;;;;;;;35.52;23.88;97315.25;5030764;28;20522;-72
2023/07/15 10:04:23;;;;;;;2.63;2.53;;;;;;;35.96;21.94;97304.91;5010303;28;20467;-72
2023/07/15 10:06:51;;;;;;;2.20;2.10;;;;;;;36.12;22.24;97310.28;5012683;28;20472;-73
2023/07/15 10:09:19;;;;;;;2.87;2.67;;;;;;;36.07;21.85;97313.47;5023561;28;20468;-73
2023/07/15 10:11:46;;;;;;;2.97;2.67;;;;;;;36.41;21.84;97311.38;5027183;28;20466;-73
2023/07/15 10:14:14;;;;;;;2.83;2.63;;;;;;;36.50;21.83;97303.41;5013324;28;20463;-72
2023/07/15 10:16:41;;;;;;;2.83;2.63;;;;;;;36.85;21.42;97299.25;5024381;28;20482;-73
2023/07/15 10:19:38;;;;;;;2.57;2.40;;;;;;;36.90;21.46;97293.25;5018842;28;20448;-75
2023/07/15 10:22:06;;;;;;;3.07;2.50;;;;;;;36.41;21.18;97299.28;5016787;28;20456;-73
2023/07/15 10:24:33;;;;;;;2.37;2.17;;;;;;;36.95;20.30;97302.16;5010686;28;20476;-72
2023/07/15 10:27:01;;;;;;;2.70;2.50;;;;;;;37.41;19.34;97295.94;5016285;28;20479;-73
2023/07/15 10:29:31;;;;;;;2.47;2.27;;;;;;;37.20;20.19;97284.56;5027690;28;20460;-75
2023/07/15 10:32:11;;;;;;;3.10;2.90;;;;;;;37.74;19.64;97286.41;5027230;28;20539;-72
2023/07/15 10:34:41;;;;;;;2.70;2.50;;;;;;;37.70;20.26;97291.25;5023265;28;20464;-72
2023/07/15 10:37:11;;;;;;;2.67;2.47;;;;;;;37.12;20.79;97283.69;5016752;28;20476;-71
2023/07/15 10:39:38;;;;;;;2.90;2.70;;;;;;;37.50;20.72;97276.63;5030648;28;20448;-74
2023/07/15 10:42:10;;;;;;;3.70;2.93;;;;;;;36.32;20.91;97271.47;5029992;28;20443;-73
2023/07/15 10:44:44;;;;;;;3.00;2.77;;;;;;;35.33;21.62;97274.81;5030401;28;20482;-74
2023/07/15 10:47:14;;;;;;;2.77;2.57;;;;;;;35.49;21.85;97273.78;5027107;28;20483;-72
2023/07/15 10:49:41;;;;;;;2.77;2.57;;;;;;;36.06;21.73;97272.41;5030873;28;20451;-72
2023/07/15 10:52:08;;;;;;;2.37;2.27;;;;;;;36.24;21.30;97266.91;5027111;28;21026;-73
2023/07/15 10:54:37;;;;;;;3.40;2.50;;;;;;;36.57;21.27;97272.44;5025201;28;20476;-72
2023/07/15 10:57:08;;;;;;;4.00;2.73;;;;;;;36.67;20.85;97273.75;5023268;28;20515;-71
2023/07/15 10:59:36;;;;;;;3.03;2.83;;;;;;;37.02;21.30;97267.53;5030448;28;20478;-71
2023/07/15 11:02:05;;;;;;;2.67;2.30;;;;;;;37.01;21.61;97268.72;5027766;28;20541;-70
2023/07/15 11:04:32;;;;;;;2.70;2.50;;;;;;;36.30;20.97;97265.41;5029298;28;20483;-70
2023/07/15 11:06:59;;;;;;;2.70;2.20;;;;;;;35.71;21.67;97266.38;5024033;28;20480;-72
2023/07/15 11:09:26;;;;;;;3.00;2.80;;;;;;;36.16;21.22;97270.88;5028678;28;20452;-70
2023/07/15 11:11:53;;;;;;;2.80;2.60;;;;;;;38.09;19.60;97262.25;5019901;28;20451;-70
2023/07/15 11:14:21;;;;;;;2.80;2.60;;;;;;;38.55;18.67;97246.13;5029410;28;20539;-73
2023/07/15 11:16:50;;;;;;;2.53;2.33;;;;;;;40.45;17.63;97259.06;5029692;28;20572;-72
2023/07/15 11:19:18;;;;;;;2.73;2.53;;;;;;;41.02;17.60;97252.03;5028761;28;20456;-72
2023/07/15 11:21:45;;;;;;;2.90;2.70;;;;;;;41.40;16.41;97249.97;5024595;28;20464;-72
2023/07/15 11:24:12;;;;;;;2.47;2.27;;;;;;;41.03;17.16;97248.75;5028528;28;20880;-73
2023/07/15 11:26:39;;;;;;;2.97;2.23;;;;;;;40.56;16.49;97241.94;5028505;28;20491;-74
2023/07/15 11:29:17;;;;;;;2.90;2.80;;;;;;;39.20;18.09;97241.97;5019636;28;20463;-72
2023/07/15 11:31:45;;;;;;;2.40;2.20;;;;;;;38.76;18.90;97233.16;5018806;28;20456;-81
2023/07/15 11:34:12;;;;;;;3.40;2.57;;;;;;;37.39;20.42;97235.44;5019648;28;20497;-74
2023/07/15 11:36:40;;;;;;;4.03;2.80;;;;;;;36.39;23.31;97234.06;5028096;28;20472;-74